createdAt,value
2023-04-09T00:02:10.705Z,6.50
2023-04-09T00:04:37.479Z,6.50
2023-04-09T00:07:04.208Z,6.50
2023-04-09T00:09:30.955Z,6.50
2023-04-09T00:11:58.196Z,6.50
2023-04-09T00:14:25.101Z,6.50
2023-04-09T00:16:51.749Z,6.50
2023-04-09T00:19:18.784Z,6.50
2023-04-09T00:21:45.680Z,6.40
2023-04-09T00:24:12.707Z,6.40
2023-04-09T00:26:39.375Z,6.40
2023-04-09T00:29:06.114Z,6.40
2023-04-09T00:31:33.291Z,6.30
2023-04-09T00:33:59.925Z,6.30
2023-04-09T00:36:27.136Z,6.30
2023-04-09T00:38:54.701Z,6.30
2023-04-09T00:41:21.443Z,6.30
2023-04-09T00:43:48.111Z,6.20
2023-04-09T00:46:14.991Z,6.20
2023-04-09T00:48:42.179Z,6.20
2023-04-09T00:51:09.184Z,6.20
2023-04-09T00:53:35.898Z,6.20
2023-04-09T00:56:04.029Z,6.20
2023-04-09T00:58:30.735Z,6.20
2023-04-09T01:00:57.468Z,6.20
2023-04-09T01:03:24.297Z,6.10
2023-04-09T01:06:03.660Z,6.10
2023-04-09T01:09:07.605Z,6.10
2023-04-09T01:11:54.191Z,6.10
2023-04-09T01:14:37.708Z,6.10
2023-04-09T01:17:11.447Z,6.10
2023-04-09T01:19:38.091Z,6.10
2023-04-09T01:22:10.615Z,6.10
2023-04-09T01:24:47.394Z,6.00
2023-04-09T01:27:15.144Z,6.00
2023-04-09T01:29:47.141Z,6.00
2023-04-09T01:32:16.189Z,6.00
2023-04-09T01:34:46.464Z,6.00
2023-04-09T01:37:15.353Z,6.00
2023-04-09T01:39:42.536Z,6.00
2023-04-09T01:42:12.245Z,6.00
2023-04-09T01:44:41.289Z,6.00
2023-04-09T01:47:09.444Z,5.90
2023-04-09T01:49:37.528Z,5.90
2023-04-09T01:52:04.588Z,5.90
2023-04-09T01:54:31.272Z,5.90
2023-04-09T01:56:58.214Z,5.90
2023-04-09T01:59:24.906Z,5.90
2023-04-09T02:02:00.698Z,5.90
2023-04-09T02:04:35.683Z,5.90
2023-04-09T02:07:13.015Z,5.90
2023-04-09T02:09:40.946Z,5.90
2023-04-09T02:12:12.920Z,5.80
2023-04-09T02:14:41.212Z,5.80
2023-04-09T02:17:08.246Z,5.80
2023-04-09T02:19:46.673Z,5.80
2023-04-09T02:22:14.279Z,5.80
2023-04-09T02:24:41.517Z,5.80
2023-04-09T02:27:08.873Z,5.80
2023-04-09T02:29:35.616Z,5.70
2023-04-09T02:32:02.347Z,5.70
2023-04-09T02:34:29.161Z,5.70
2023-04-09T02:36:55.824Z,5.70
2023-04-09T02:39:22.581Z,5.60
2023-04-09T02:41:51.515Z,5.60
2023-04-09T02:44:18.208Z,5.60
2023-04-09T02:46:46.795Z,5.50
2023-04-09T02:49:13.456Z,5.50
2023-04-09T02:51:40.224Z,5.40
2023-04-09T02:54:06.945Z,5.40
2023-04-09T02:56:33.690Z,5.30
2023-04-09T02:59:00.362Z,5.30
2023-04-09T03:01:27.166Z,5.20
2023-04-09T03:03:53.933Z,5.10
2023-04-09T03:06:20.762Z,5.00
2023-04-09T03:08:47.506Z,5.00
2023-04-09T03:11:14.157Z,4.80
2023-04-09T03:13:40.877Z,4.70
2023-04-09T03:16:08.453Z,4.50
2023-04-09T03:18:35.201Z,4.40
2023-04-09T03:21:06.455Z,4.20
2023-04-09T03:23:35.664Z,4.00
2023-04-09T03:26:06.463Z,3.80
2023-04-09T03:28:33.295Z,3.70
2023-04-09T03:31:02.103Z,3.50
2023-04-09T03:33:28.810Z,3.40
2023-04-09T03:35:55.602Z,3.20
2023-04-09T03:38:22.335Z,3.10
2023-04-09T03:40:49.096Z,3.00
2023-04-09T03:43:15.766Z,2.90
2023-04-09T03:45:42.392Z,2.80
2023-04-09T03:48:09.100Z,2.70
2023-04-09T03:50:40.755Z,2.60
2023-04-09T03:53:07.909Z,2.60
2023-04-09T03:55:34.956Z,2.50
2023-04-09T03:58:01.625Z,2.40
2023-04-09T04:00:28.367Z,2.40
2023-04-09T04:02:55.405Z,2.30
2023-04-09T04:05:25.599Z,2.20
2023-04-09T04:07:52.654Z,2.20
2023-04-09T04:10:19.763Z,2.10
2023-04-09T04:12:47.649Z,2.00
2023-04-09T04:15:14.559Z,2.00
2023-04-09T04:17:41.318Z,2.00
2023-04-09T04:20:08.632Z,1.90
2023-04-09T04:22:35.747Z,1.90
2023-04-09T04:25:03.564Z,1.80
2023-04-09T04:27:30.241Z,1.80
2023-04-09T04:29:58.726Z,1.70
2023-04-09T04:32:25.628Z,1.70
2023-04-09T04:34:52.230Z,1.60
2023-04-09T04:37:18.890Z,1.70
2023-04-09T04:39:45.599Z,1.50
2023-04-09T04:42:12.333Z,1.50
2023-04-09T04:44:39.101Z,1.50
2023-04-09T04:47:05.804Z,1.40
2023-04-09T04:49:32.460Z,1.40
2023-04-09T04:51:59.149Z,1.40
2023-04-09T04:54:25.868Z,1.40
2023-04-09T04:56:52.552Z,1.40
2023-04-09T04:59:19.280Z,1.40
2023-04-09T05:01:46.054Z,1.50
2023-04-09T05:04:12.746Z,1.50
2023-04-09T05:06:39.459Z,1.50
2023-04-09T05:09:07.009Z,1.50
2023-04-09T05:11:33.699Z,1.70
2023-04-09T05:14:00.372Z,1.90
2023-04-09T05:16:27.120Z,2.20
2023-04-09T05:18:53.982Z,2.30
2023-04-09T05:21:21.002Z,2.40
2023-04-09T05:23:47.714Z,2.60
2023-04-09T05:26:14.478Z,2.90
2023-04-09T05:28:41.800Z,3.20
2023-04-09T05:31:12.913Z,3.60
2023-04-09T05:33:39.816Z,4.10
2023-04-09T05:36:07.135Z,4.50
2023-04-09T05:38:34.260Z,4.90
2023-04-09T05:41:00.744Z,5.20
2023-04-09T05:43:27.401Z,5.20
2023-04-09T05:45:54.265Z,5.00
2023-04-09T05:48:21.077Z,4.80
2023-04-09T05:50:55.094Z,4.60
2023-04-09T05:53:23.007Z,4.40
2023-04-09T05:55:49.725Z,4.30
2023-04-09T05:58:17.263Z,4.20
2023-04-09T06:00:43.968Z,4.00
2023-04-09T06:03:10.815Z,4.00
2023-04-09T06:05:37.676Z,4.00
2023-04-09T06:08:04.530Z,4.00
2023-04-09T06:10:32.417Z,4.00
2023-04-09T06:12:59.105Z,4.00
2023-04-09T06:15:25.855Z,4.10
2023-04-09T06:17:52.587Z,4.10
2023-04-09T06:20:21.745Z,4.30
2023-04-09T06:22:48.416Z,4.30
2023-04-09T06:25:15.108Z,4.50
2023-04-09T06:27:41.732Z,4.60
2023-04-09T06:30:09.169Z,4.80
2023-04-09T06:32:43.674Z,4.90
2023-04-09T06:35:18.074Z,5.00
2023-04-09T06:37:44.740Z,5.20
2023-04-09T06:40:11.951Z,5.30
2023-04-09T06:42:38.761Z,5.50
2023-04-09T06:45:09.113Z,5.60
2023-04-09T06:47:36.245Z,5.80
2023-04-09T06:50:03.422Z,5.90
2023-04-09T06:52:30.237Z,6.00
2023-04-09T06:54:56.943Z,6.20
2023-04-09T06:57:23.696Z,6.30
2023-04-09T06:59:50.350Z,6.50
2023-04-09T07:02:17.300Z,6.70
2023-04-09T07:04:44.106Z,6.80
2023-04-09T07:07:10.978Z,6.90
2023-04-09T07:09:37.659Z,7.00
2023-04-09T07:12:04.454Z,7.20
2023-04-09T07:14:31.129Z,7.20
2023-04-09T07:16:57.840Z,7.50
2023-04-09T07:19:24.559Z,7.80
2023-04-09T07:21:51.383Z,7.90
2023-04-09T07:24:18.075Z,7.90
2023-04-09T07:26:44.742Z,8.00
2023-04-09T07:29:11.531Z,8.20
2023-04-09T07:31:38.410Z,8.40
2023-04-09T07:34:05.167Z,8.60
2023-04-09T07:36:31.862Z,8.80
2023-04-09T07:38:58.648Z,8.80
2023-04-09T07:41:25.518Z,8.90
2023-04-09T07:43:52.160Z,9.00
2023-04-09T07:46:20.783Z,9.20
2023-04-09T07:48:48.502Z,9.30
2023-04-09T07:51:15.928Z,9.40
2023-04-09T07:53:42.624Z,9.60
2023-04-09T07:56:09.285Z,9.70
2023-04-09T07:58:37.887Z,9.90
2023-04-09T08:01:04.783Z,9.90
2023-04-09T08:03:31.643Z,9.80
2023-04-09T08:05:58.528Z,9.80
2023-04-09T08:08:25.085Z,10.00
2023-04-09T08:10:52.130Z,10.20
2023-04-09T08:13:18.818Z,10.40
2023-04-09T08:15:45.460Z,10.60
2023-04-09T08:18:12.906Z,10.60
2023-04-09T08:20:44.941Z,10.80
2023-04-09T08:23:12.240Z,10.90
2023-04-09T08:25:38.980Z,10.90
2023-04-09T08:28:06.421Z,11.00
2023-04-09T08:30:34.229Z,11.10
2023-04-09T08:33:01.804Z,11.20
2023-04-09T08:35:31.050Z,11.20
2023-04-09T08:37:58.561Z,11.30
2023-04-09T08:40:25.379Z,11.50
2023-04-09T08:42:58.682Z,11.60
2023-04-09T08:45:25.801Z,11.70
2023-04-09T08:47:52.442Z,11.90
2023-04-09T08:50:19.749Z,12.10
2023-04-09T08:52:48.128Z,12.00
2023-04-09T08:55:14.893Z,12.10
2023-04-09T08:57:44.289Z,12.20
2023-04-09T09:00:11.784Z,12.10
2023-04-09T09:02:39.482Z,12.30
2023-04-09T09:05:06.940Z,12.30
2023-04-09T09:07:34.236Z,12.40
2023-04-09T09:10:05.063Z,12.50
2023-04-09T09:12:35.209Z,12.40
2023-04-09T09:15:02.263Z,12.50
2023-04-09T09:17:29.131Z,12.80
2023-04-09T09:19:55.974Z,12.90
2023-04-09T09:22:22.654Z,13.20
2023-04-09T09:24:51.654Z,13.50
2023-04-09T09:27:40.331Z,13.90
2023-04-09T09:30:08.608Z,14.70
2023-04-09T09:32:35.820Z,15.50
2023-04-09T09:35:07.221Z,16.00
2023-04-09T09:37:34.210Z,16.40
2023-04-09T09:40:01.249Z,16.80
2023-04-09T09:42:28.054Z,17.30
2023-04-09T09:44:55.274Z,16.50
2023-04-09T09:47:23.229Z,16.50
2023-04-09T09:49:50.838Z,16.90
2023-04-09T09:52:21.098Z,17.70
2023-04-09T09:54:52.186Z,18.50
2023-04-09T09:57:21.512Z,19.10
2023-04-09T09:59:53.325Z,19.90
2023-04-09T10:02:23.472Z,19.90
2023-04-09T10:04:52.618Z,20.00
2023-04-09T10:07:21.783Z,20.90
2023-04-09T10:09:51.443Z,21.90
2023-04-09T10:12:22.399Z,22.70
2023-04-09T10:14:50.931Z,23.30
2023-04-09T10:17:17.793Z,23.30
2023-04-09T10:19:52.986Z,22.80
2023-04-09T10:22:23.369Z,22.60
2023-04-09T10:24:51.367Z,23.40
2023-04-09T10:27:18.296Z,24.80
2023-04-09T10:29:47.583Z,25.00
2023-04-09T10:32:36.027Z,24.10
2023-04-09T10:35:04.115Z,23.40
2023-04-09T10:37:30.641Z,22.30
2023-04-09T10:39:57.838Z,21.40
2023-04-09T10:42:32.628Z,22.50
2023-04-09T10:45:10.459Z,22.30
2023-04-09T10:47:39.397Z,23.10
2023-04-09T10:50:25.769Z,23.60
2023-04-09T10:52:54.559Z,24.40
2023-04-09T10:55:42.160Z,24.30
2023-04-09T10:58:12.765Z,24.30
2023-04-09T11:00:42.377Z,23.80
2023-04-09T11:03:09.186Z,24.30
2023-04-09T11:05:38.617Z,24.90
2023-04-09T11:08:14.105Z,24.10
2023-04-09T11:10:44.822Z,23.20
2023-04-09T11:13:13.608Z,21.90
2023-04-09T11:15:43.976Z,21.10
2023-04-09T11:18:14.941Z,19.80
2023-04-09T11:20:41.792Z,18.70
2023-04-09T11:23:08.620Z,18.50
2023-04-09T11:25:35.639Z,18.40
2023-04-09T11:28:04.118Z,18.70
2023-04-09T11:30:31.673Z,20.30
2023-04-09T11:32:58.372Z,22.40
2023-04-09T11:35:25.548Z,24.50
2023-04-09T11:37:52.593Z,26.80
2023-04-09T11:40:21.124Z,28.20
2023-04-09T11:42:50.877Z,29.00
2023-04-09T11:45:18.858Z,29.60
2023-04-09T11:47:46.634Z,29.10
2023-04-09T11:50:14.860Z,30.00
2023-04-09T11:52:42.305Z,30.00
2023-04-09T11:55:10.676Z,30.80
2023-04-09T11:57:42.921Z,31.60
2023-04-09T12:00:17.843Z,33.00
2023-04-09T12:02:46.907Z,33.60
2023-04-09T12:05:22.630Z,34.00
2023-04-09T12:07:56.203Z,33.10
2023-04-09T12:10:27.958Z,33.10
2023-04-09T12:12:54.929Z,33.10
2023-04-09T12:15:24.138Z,33.20
2023-04-09T12:17:53.476Z,33.90
2023-04-09T12:20:39.551Z,33.50
2023-04-09T12:23:08.059Z,32.70
2023-04-09T12:25:37.209Z,32.50
2023-04-09T12:28:05.997Z,32.90
2023-04-09T12:30:33.877Z,32.70
2023-04-09T12:33:01.450Z,31.50
2023-04-09T12:35:28.347Z,31.80
2023-04-09T12:37:55.569Z,32.90
2023-04-09T12:40:22.590Z,33.60
2023-04-09T12:42:49.455Z,33.80
2023-04-09T12:45:17.909Z,34.60
2023-04-09T12:47:45.349Z,35.30
2023-04-09T12:50:13.610Z,35.30
2023-04-09T12:52:40.665Z,34.00
2023-04-09T12:55:08.234Z,32.30
2023-04-09T12:57:37.453Z,31.20
2023-04-09T13:00:06.070Z,29.90
2023-04-09T13:02:33.179Z,29.40
2023-04-09T13:05:00.219Z,29.20
2023-04-09T13:07:29.298Z,29.90
2023-04-09T13:09:57.129Z,31.10
2023-04-09T13:12:24.302Z,31.60
2023-04-09T13:14:53.613Z,32.70
2023-04-09T13:17:20.609Z,33.40
2023-04-09T13:19:47.334Z,34.10
2023-04-09T13:22:14.451Z,34.40
2023-04-09T13:24:41.195Z,32.10
2023-04-09T13:27:09.647Z,29.80
2023-04-09T13:29:36.609Z,29.30
2023-04-09T13:32:07.100Z,29.00
2023-04-09T13:34:35.157Z,27.60
2023-04-09T13:37:03.313Z,25.20
2023-04-09T13:39:30.365Z,23.90
2023-04-09T13:41:57.196Z,23.10
2023-04-09T13:44:25.732Z,22.40
2023-04-09T13:46:52.675Z,23.20
2023-04-09T13:49:19.442Z,23.60
2023-04-09T13:51:46.589Z,24.30
2023-04-09T13:54:13.367Z,26.00
2023-04-09T13:56:40.495Z,26.90
2023-04-09T13:59:07.413Z,27.40
2023-04-09T14:01:34.466Z,27.40
2023-04-09T14:04:01.300Z,26.90
2023-04-09T14:06:28.102Z,27.80
2023-04-09T14:08:55.111Z,28.70
2023-04-09T14:11:22.053Z,28.20
2023-04-09T14:13:48.751Z,27.00
2023-04-09T14:16:15.670Z,27.00
2023-04-09T14:18:42.430Z,26.80
2023-04-09T14:21:10.308Z,26.30
2023-04-09T14:23:40.316Z,25.80
2023-04-09T14:26:07.177Z,24.90
2023-04-09T14:28:33.898Z,23.90
2023-04-09T14:31:01.061Z,23.20
2023-04-09T14:33:27.910Z,22.60
2023-04-09T14:35:54.773Z,21.90
2023-04-09T14:38:23.890Z,21.00
2023-04-09T14:40:51.259Z,20.70
2023-04-09T14:43:18.154Z,21.50
2023-04-09T14:45:44.848Z,22.70
2023-04-09T14:48:11.697Z,22.80
2023-04-09T14:50:38.513Z,22.00
2023-04-09T14:53:05.245Z,21.30
2023-04-09T14:55:31.891Z,22.40
2023-04-09T14:57:59.671Z,24.90
2023-04-09T15:00:26.664Z,26.80
2023-04-09T15:02:54.061Z,27.40
2023-04-09T15:05:21.313Z,28.30
2023-04-09T15:07:48.021Z,29.60
2023-04-09T15:10:15.431Z,30.60
2023-04-09T15:12:42.171Z,31.10
2023-04-09T15:15:09.379Z,31.80
2023-04-09T15:17:36.761Z,32.50
2023-04-09T15:20:04.087Z,32.90
2023-04-09T15:22:30.855Z,33.50
2023-04-09T15:24:57.640Z,33.70
2023-04-09T15:27:24.456Z,34.30
2023-04-09T15:29:51.833Z,34.00
2023-04-09T15:32:19.331Z,33.80
2023-04-09T15:34:46.084Z,32.00
2023-04-09T15:37:12.933Z,29.70
2023-04-09T15:39:39.592Z,29.30
2023-04-09T15:42:08.774Z,29.00
2023-04-09T15:44:36.762Z,28.90
2023-04-09T15:47:03.470Z,29.20
2023-04-09T15:49:30.223Z,29.70
2023-04-09T15:51:56.821Z,29.40
2023-04-09T15:54:23.482Z,29.40
2023-04-09T15:56:50.107Z,29.70
2023-04-09T15:59:18.796Z,29.70
2023-04-09T16:01:45.904Z,29.10
2023-04-09T16:04:12.699Z,26.90
2023-04-09T16:06:39.481Z,24.50
2023-04-09T16:09:06.200Z,22.40
2023-04-09T16:11:35.782Z,20.90
2023-04-09T16:14:02.590Z,19.60
2023-04-09T16:16:29.525Z,18.70
2023-04-09T16:18:56.346Z,17.90
2023-04-09T16:21:23.017Z,17.30
2023-04-09T16:23:49.731Z,16.80
2023-04-09T16:26:16.475Z,16.50
2023-04-09T16:28:43.132Z,16.30
2023-04-09T16:31:09.824Z,16.20
2023-04-09T16:33:36.443Z,16.10
2023-04-09T16:36:03.276Z,16.10
2023-04-09T16:38:31.085Z,16.10
2023-04-09T16:40:57.849Z,16.20
2023-04-09T16:43:25.328Z,16.30
2023-04-09T16:45:52.290Z,16.30
2023-04-09T16:48:19.224Z,16.30
2023-04-09T16:50:45.882Z,16.30
2023-04-09T16:53:12.643Z,16.30
2023-04-09T16:55:39.317Z,16.30
2023-04-09T16:58:06.168Z,16.20
2023-04-09T17:00:32.856Z,16.00
2023-04-09T17:02:59.768Z,15.90
2023-04-09T17:05:26.625Z,15.80
2023-04-09T17:07:53.616Z,15.60
2023-04-09T17:10:20.778Z,15.30
2023-04-09T17:12:48.139Z,15.00
2023-04-09T17:15:14.848Z,14.70
2023-04-09T17:17:41.727Z,14.50
2023-04-09T17:20:09.144Z,14.30
2023-04-09T17:22:36.217Z,14.10
2023-04-09T17:25:03.838Z,13.90
2023-04-09T17:27:31.264Z,13.80
2023-04-09T17:29:58.034Z,13.50
2023-04-09T17:32:24.732Z,13.40
2023-04-09T17:34:52.257Z,13.20
2023-04-09T17:37:19.608Z,13.00
2023-04-09T17:39:46.069Z,12.80
2023-04-09T17:42:12.856Z,12.60
2023-04-09T17:44:39.572Z,12.40
2023-04-09T17:47:07.431Z,12.30
2023-04-09T17:49:34.464Z,12.10
2023-04-09T17:52:01.510Z,12.00
2023-04-09T17:54:33.616Z,12.00
2023-04-09T17:57:01.636Z,11.90
2023-04-09T17:59:28.971Z,11.80
2023-04-09T18:01:56.685Z,11.80
2023-04-09T18:04:24.429Z,11.70
2023-04-09T18:06:51.811Z,11.60
2023-04-09T18:09:19.168Z,11.40
2023-04-09T18:11:46.425Z,11.30
2023-04-09T18:14:13.237Z,11.20
2023-04-09T18:16:40.125Z,11.00
2023-04-09T18:19:07.828Z,10.80
2023-04-09T18:21:36.581Z,10.70
2023-04-09T18:24:04.147Z,10.50
2023-04-09T18:26:31.697Z,10.50
2023-04-09T18:29:00.838Z,10.30
2023-04-09T18:31:28.202Z,10.30
2023-04-09T18:33:55.045Z,10.10
2023-04-09T18:36:23.663Z,10.00
2023-04-09T18:38:50.384Z,9.80
2023-04-09T18:41:25.966Z,9.70
2023-04-09T18:43:52.795Z,9.60
2023-04-09T18:46:19.790Z,9.40
2023-04-09T18:48:47.539Z,9.30
2023-04-09T18:51:14.587Z,9.20
2023-04-09T18:53:41.839Z,9.00
2023-04-09T18:56:08.683Z,8.90
2023-04-09T18:58:36.065Z,8.80
2023-04-09T19:01:10.847Z,8.70
2023-04-09T19:03:37.916Z,8.60
2023-04-09T19:06:12.160Z,8.40
2023-04-09T19:08:39.115Z,8.30
2023-04-09T19:11:07.614Z,8.20
2023-04-09T19:13:34.415Z,8.10
2023-04-09T19:16:01.403Z,8.00
2023-04-09T19:18:28.264Z,7.80
2023-04-09T19:20:54.990Z,7.70
2023-04-09T19:23:21.689Z,7.60
2023-04-09T19:25:53.381Z,7.60
2023-04-09T19:28:20.164Z,7.50
2023-04-09T19:30:47.119Z,7.50
2023-04-09T19:33:13.767Z,7.40
2023-04-09T19:35:41.053Z,7.30
2023-04-09T19:38:08.180Z,7.30
2023-04-09T19:40:35.057Z,7.20
2023-04-09T19:43:01.868Z,7.10
2023-04-09T19:45:28.591Z,7.00
2023-04-09T19:47:55.986Z,6.90
2023-04-09T19:50:22.980Z,6.80
2023-04-09T19:52:49.646Z,6.70
2023-04-09T19:55:16.428Z,6.70
2023-04-09T19:57:44.273Z,6.60
2023-04-09T20:00:11.897Z,6.50
2023-04-09T20:02:41.329Z,6.50
2023-04-09T20:05:09.795Z,6.40
2023-04-09T20:07:36.749Z,6.40
2023-04-09T20:10:03.802Z,6.30
2023-04-09T20:12:30.473Z,6.20
2023-04-09T20:14:57.300Z,6.20
2023-04-09T20:17:24.388Z,6.10
2023-04-09T20:19:51.206Z,6.10
2023-04-09T20:22:17.842Z,6.00
2023-04-09T20:24:44.552Z,4.70
2023-04-09T20:27:11.303Z,5.90
2023-04-09T20:29:38.322Z,5.80
2023-04-09T20:32:05.132Z,5.70
2023-04-09T20:34:32.555Z,5.70
2023-04-09T20:36:59.269Z,5.70
2023-04-09T20:39:27.120Z,5.60
2023-04-09T20:41:54.978Z,5.50
2023-04-09T20:44:22.419Z,5.50
2023-04-09T20:46:49.626Z,5.40
2023-04-09T20:49:16.335Z,5.40
2023-04-09T20:51:42.971Z,5.30
2023-04-09T20:54:09.826Z,5.30
2023-04-09T20:56:36.492Z,5.20
2023-04-09T20:59:03.416Z,5.20
2023-04-09T21:01:30.110Z,5.10
2023-04-09T21:03:57.527Z,5.10
2023-04-09T21:06:24.352Z,5.00
2023-04-09T21:08:51.742Z,5.00
2023-04-09T21:11:18.555Z,5.00
2023-04-09T21:13:54.542Z,4.90
2023-04-09T21:16:22.448Z,4.90
2023-04-09T21:18:50.281Z,4.80
2023-04-09T21:21:17.085Z,4.80
2023-04-09T21:23:43.749Z,4.70
2023-04-09T21:26:11.441Z,4.60
2023-04-09T21:28:38.132Z,4.60
2023-04-09T21:31:05.250Z,4.60
2023-04-09T21:33:32.346Z,4.50
2023-04-09T21:35:59.098Z,4.50
2023-04-09T21:38:25.933Z,4.50
2023-04-09T21:40:52.622Z,4.40
2023-04-09T21:43:19.312Z,4.30
2023-04-09T21:45:46.065Z,4.30
2023-04-09T21:48:15.569Z,4.10
2023-04-09T21:50:42.209Z,4.10
2023-04-09T21:53:08.950Z,4.00
2023-04-09T21:55:37.037Z,4.00
2023-04-09T21:58:03.817Z,3.90
2023-04-09T22:00:30.755Z,3.90
2023-04-09T22:03:01.362Z,3.90
2023-04-09T22:05:28.802Z,3.80
2023-04-09T22:07:56.377Z,3.80
2023-04-09T22:10:23.386Z,3.80
2023-04-09T22:12:50.529Z,3.80
2023-04-09T22:15:17.544Z,3.80
2023-04-09T22:17:44.369Z,3.70
2023-04-09T22:20:11.194Z,4.30
2023-04-09T22:22:38.339Z,3.60
2023-04-09T22:25:06.930Z,3.60
2023-04-09T22:27:34.062Z,3.50
2023-04-09T22:30:00.748Z,3.50
2023-04-09T22:32:27.744Z,3.50
2023-04-09T22:34:54.451Z,3.40
2023-04-09T22:37:21.573Z,3.40
2023-04-09T22:39:48.693Z,3.30
2023-04-09T22:42:15.568Z,3.30
2023-04-09T22:44:42.635Z,3.30
2023-04-09T22:47:09.328Z,3.30
2023-04-09T22:49:35.978Z,3.30
2023-04-09T22:52:02.665Z,3.30
2023-04-09T22:54:30.047Z,3.20
2023-04-09T22:56:57.892Z,3.20
2023-04-09T22:59:30.462Z,3.10
2023-04-09T23:02:05.920Z,3.10
2023-04-09T23:04:34.089Z,3.10
2023-04-09T23:07:00.957Z,3.10
2023-04-09T23:09:27.699Z,3.10
2023-04-09T23:11:54.383Z,3.10
2023-04-09T23:14:21.113Z,3.10
2023-04-09T23:16:47.865Z,3.10
2023-04-09T23:19:14.596Z,3.00
2023-04-09T23:21:41.244Z,3.00
2023-04-09T23:24:07.912Z,3.00
2023-04-09T23:26:34.581Z,3.00
2023-04-09T23:29:01.400Z,3.00
2023-04-09T23:31:28.032Z,2.90
2023-04-09T23:33:54.908Z,2.90
2023-04-09T23:36:24.039Z,2.80
2023-04-09T23:38:50.653Z,2.80
2023-04-09T23:41:17.427Z,2.80
2023-04-09T23:43:44.082Z,2.80
2023-04-09T23:46:10.761Z,2.80
2023-04-09T23:48:37.512Z,2.80
2023-04-09T23:51:04.424Z,2.70
2023-04-09T23:53:33.668Z,2.70
2023-04-09T23:56:00.861Z,2.60
2023-04-09T23:58:27.634Z,2.60
